Terminal Aerodrome Forecast
Issued by NWS

Home | Current Version | Previous Version | Text Only | Print | Product List | Glossary On
Versions: 1 2 3 4 5 6 7 8 9 10 11 12 13 14 15
810
FTUS44 KCRP 122336
TAFALI
TAF
KALI 122336Z 1300/1324 13006KT P6SM SKC
     FM130600 15005KT 5SM BR SCT007
      TEMPO 1306/1308 2SM BR BKN007
     FM130800 VRB03KT 1/2SM FG BKN002
      TEMPO 1310/1314 1/4SM FG VV001
     FM131530 14007KT P6SM SCT035
     FM131900 13012KT P6SM FEW050=

USA.gov is the U.S. government's official web portal to all federal, state and local government web resources and services.